Time;durP1;ratioP1;P1;durP2;ratioP2;P2;SDS_P1;SDS_P2;PMS_P1;PMS_P2;Temp;Humidity;BMP_temperature;BMP_pressure;BME280_temperature;BME280_humidity;BME280_pressure;Samples;Min_cycle;Max_cycle;Signal;HPM_P1;HPM_P2
2022/03/11 00:00:42;;;;;;;11.82;5.13;;;;;;;10.81;31.96;101790.16;4973243;28;125255;-62
2022/03/11 00:03:11;;;;;;;10.70;5.75;;;;;;;10.78;32.11;101784.97;4972655;28;124168;-62
2022/03/11 00:05:39;;;;;;;10.52;5.50;;;;;;;10.74;32.12;101783.31;4971956;28;114457;-62
2022/03/11 00:08:07;;;;;;;11.43;5.47;;;;;;;10.73;32.36;101781.59;4971358;28;114788;-62
2022/03/11 00:10:34;;;;;;;11.15;5.18;;;;;;;10.68;32.37;101785.25;4972121;28;123518;-61
2022/03/11 00:13:04;;;;;;;10.00;5.07;;;;;;;10.66;32.37;101781.78;4971958;28;124518;-62
2022/03/11 00:15:32;;;;;;;10.50;5.25;;;;;;;10.64;32.23;101775.69;4972016;28;114305;-62
2022/03/11 00:18:00;;;;;;;12.15;5.65;;;;;;;10.63;32.10;101781.88;4972190;28;113995;-62
2022/03/11 00:20:28;;;;;;;9.25;5.10;;;;;;;10.61;32.18;101778.41;4972219;28;123906;-62
2022/03/11 00:22:56;;;;;;;11.02;5.50;;;;;;;10.57;32.43;101768.81;4971876;28;124217;-61
2022/03/11 00:25:23;;;;;;;10.02;5.57;;;;;;;10.54;32.29;101776.84;4973096;28;114432;-61
2022/03/11 00:27:51;;;;;;;8.52;5.32;;;;;;;10.52;32.21;101768.09;4971746;28;115159;-61
2022/03/11 00:30:18;;;;;;;9.88;5.10;;;;;;;10.49;32.29;101762.88;4969290;28;123894;-61
2022/03/11 00:32:46;;;;;;;11.27;5.80;;;;;;;10.47;32.34;101775.28;4971197;28;123866;-62
2022/03/11 00:35:13;;;;;;;10.20;5.10;;;;;;;10.45;32.29;101766.53;4971990;28;115149;-61
2022/03/11 00:37:41;;;;;;;11.25;5.43;;;;;;;10.44;32.35;101775.41;4972994;28;114907;-61
2022/03/11 00:40:11;;;;;;;11.32;5.18;;;;;;;10.41;32.67;101764.88;4969462;28;123851;-61
2022/03/11 00:42:39;;;;;;;10.75;5.60;;;;;;;10.40;32.43;101779.06;4971318;28;123962;-62
2022/03/11 00:45:07;;;;;;;11.90;5.82;;;;;;;10.38;32.38;101764.97;4971784;28;114091;-61
2022/03/11 00:47:34;;;;;;;11.85;5.53;;;;;;;10.36;32.62;101766.78;4972134;28;113447;-61
2022/03/11 00:50:01;;;;;;;10.80;5.85;;;;;;;10.36;32.52;101764.16;4971702;28;124024;-61
2022/03/11 00:52:28;;;;;;;12.05;5.40;;;;;;;10.35;32.62;101765.06;4970571;28;123584;-61
2022/03/11 00:54:57;;;;;;;11.38;5.60;;;;;;;10.31;32.55;101765.16;4968677;28;114328;-61
2022/03/11 00:57:24;;;;;;;9.70;5.93;;;;;;;10.29;32.64;101764.31;4970660;28;114997;-61
2022/03/11 00:59:51;;;;;;;12.75;6.28;;;;;;;10.26;32.50;101761.72;4970169;28;123822;-61
2022/03/11 01:02:18;;;;;;;12.15;5.82;;;;;;;10.25;32.84;101762.66;4969988;28;124269;-61
2022/03/11 01:04:48;;;;;;;13.35;5.80;;;;;;;10.22;32.78;101754.78;4970254;28;114260;-61
2022/03/11 01:07:17;;;;;;;11.00;6.00;;;;;;;10.21;32.71;101757.47;4972777;28;113953;-61
2022/03/11 01:09:45;;;;;;;11.57;5.80;;;;;;;10.16;32.71;101754.13;4969057;28;124380;-61
2022/03/11 01:12:13;;;;;;;12.52;5.57;;;;;;;10.12;32.68;101748.03;4970738;28;124434;-61
2022/03/11 01:14:40;;;;;;;10.60;5.28;;;;;;;10.08;32.57;101746.41;4969978;28;115144;-61
2022/03/11 01:17:07;;;;;;;11.80;5.80;;;;;;;10.04;32.80;101745.63;4970358;28;114280;-61
2022/03/11 01:19:35;;;;;;;12.77;5.47;;;;;;;10.01;32.64;101739.53;4969169;28;124049;-61
2022/03/11 01:22:05;;;;;;;11.32;5.80;;;;;;;9.97;33.04;101737.91;4968438;28;124973;-61
2022/03/11 01:24:32;;;;;;;11.25;5.63;;;;;;;9.91;32.87;101737.16;4970330;28;115540;-61
2022/03/11 01:26:59;;;;;;;12.93;6.43;;;;;;;9.88;32.97;101733.72;4971134;28;115090;-61
2022/03/11 01:29:26;;;;;;;12.27;5.88;;;;;;;9.83;32.63;101725.91;4969374;28;124197;-61
2022/03/11 01:31:53;;;;;;;11.73;5.93;;;;;;;9.79;33.04;101724.25;4968798;28;123738;-61
2022/03/11 01:34:20;;;;;;;13.30;5.95;;;;;;;9.76;33.09;101724.34;4972432;28;114377;-61
2022/03/11 01:36:48;;;;;;;12.90;6.00;;;;;;;9.72;32.76;101717.41;4969764;28;113744;-61
2022/03/11 01:39:15;;;;;;;12.40;5.63;;;;;;;9.68;32.92;101710.44;4969302;28;124013;-61
2022/03/11 01:41:42;;;;;;;11.60;5.53;;;;;;;9.65;33.23;101715.84;4969265;28;123831;-61
2022/03/11 01:44:10;;;;;;;11.82;5.60;;;;;;;9.63;33.09;101712.38;4972146;28;114720;-61
2022/03/11 01:46:38;;;;;;;11.90;5.97;;;;;;;9.61;33.09;101700.97;4971785;28;114210;-61
2022/03/11 01:49:08;;;;;;;13.65;5.90;;;;;;;9.57;33.14;101702.81;4968689;28;124097;-61
2022/03/11 01:51:41;;;;;;;12.88;5.90;;;;;;;9.53;33.12;101696.75;4970220;28;122860;-61
2022/03/11 01:54:08;;;;;;;10.30;5.68;;;;;;;9.51;32.97;101698.56;4971677;28;113974;-62
2022/03/11 01:56:37;;;;;;;12.02;5.68;;;;;;;9.47;33.21;101691.59;4971482;28;114054;-61
2022/03/11 01:59:05;;;;;;;11.75;5.75;;;;;;;9.45;33.15;101688.13;4971359;28;124725;-61
2022/03/11 02:01:33;;;;;;;14.07;6.07;;;;;;;9.42;33.26;101687.34;4968505;28;123839;-62
2022/03/11 02:04:01;;;;;;;11.63;5.97;;;;;;;9.40;33.15;101682.13;4971703;28;114089;-61
2022/03/11 02:06:28;;;;;;;10.40;5.72;;;;;;;9.35;33.24;101676.09;4970176;28;114330;-61
2022/03/11 02:08:56;;;;;;;13.68;6.20;;;;;;;9.33;33.25;101677.91;4970799;28;124658;-61
2022/03/11 02:11:24;;;;;;;10.38;5.65;;;;;;;9.31;33.78;101669.16;4968326;28;123725;-61
2022/03/11 02:14:00;;;;;;;12.55;6.20;;;;;;;9.28;33.65;101674.50;4970265;28;115242;-61
2022/03/11 02:16:30;;;;;;;10.90;5.85;;;;;;;9.28;33.80;101663.94;4969705;28;115160;-61
2022/03/11 02:18:58;;;;;;;12.23;6.35;;;;;;;9.27;33.79;101662.22;4970120;28;124517;-62
2022/03/11 02:21:27;;;;;;;14.30;5.55;;;;;;;9.24;33.73;101662.28;4970365;28;123950;-61
2022/03/11 02:23:56;;;;;;;12.35;6.13;;;;;;;9.23;33.51;101657.88;4970965;28;114818;-62
2022/03/11 02:26:25;;;;;;;11.70;5.72;;;;;;;9.22;33.54;101658.81;4971602;28;113940;-61
2022/03/11 02:28:54;;;;;;;11.23;5.80;;;;;;;9.22;33.75;101648.25;4968465;28;123599;-62
2022/03/11 02:31:25;;;;;;;11.35;6.05;;;;;;;9.21;33.73;101649.13;4968391;28;124455;-61
2022/03/11 02:33:52;;;;;;;9.52;5.55;;;;;;;9.20;33.59;101644.78;4971042;28;115160;-61
2022/03/11 02:36:20;;;;;;;13.57;6.40;;;;;;;9.19;33.66;101643.88;4967621;28;114251;-61
2022/03/11 02:38:48;;;;;;;14.90;6.40;;;;;;;9.18;33.91;101641.31;4968078;28;123717;-62
2022/03/11 02:41:15;;;;;;;11.75;5.57;;;;;;;9.18;33.74;101636.88;4968472;28;124155;-61
2022/03/11 02:43:43;;;;;;;11.48;5.90;;;;;;;9.18;33.85;101641.31;4970617;28;114121;-61
2022/03/11 02:46:11;;;;;;;13.10;6.15;;;;;;;9.16;33.96;101634.28;4970182;28;113256;-62
2022/03/11 02:48:38;;;;;;;12.70;5.70;;;;;;;9.16;33.97;101639.56;4970261;28;123918;-62
2022/03/11 02:51:06;;;;;;;11.93;5.97;;;;;;;9.16;33.83;101634.28;4970137;28;124109;-61
2022/03/11 02:53:37;;;;;;;12.35;5.47;;;;;;;9.14;33.77;101630.81;4971574;28;115321;-62
2022/03/11 02:56:11;;;;;;;10.70;5.25;;;;;;;9.15;34.00;101627.28;4970446;28;116782;-61
2022/03/11 02:58:40;;;;;;;9.80;5.40;;;;;;;9.14;33.74;101630.81;4969522;28;124148;-62
2022/03/11 03:01:10;;;;;;;11.88;5.10;;;;;;;9.13;34.08;101626.41;4967837;28;124030;-61
2022/03/11 03:03:39;;;;;;;10.50;5.35;;;;;;;9.13;34.17;101622.91;4969053;28;114848;-61
2022/03/11 03:06:07;;;;;;;10.52;5.30;;;;;;;9.12;34.30;101627.34;4968433;28;115140;-61
2022/03/11 03:08:34;;;;;;;11.02;5.50;;;;;;;9.09;34.24;101627.41;4968924;28;123830;-61
2022/03/11 03:11:01;;;;;;;11.10;5.15;;;;;;;9.08;34.11;101625.69;4966248;28;123898;-62
2022/03/11 03:13:29;;;;;;;9.73;4.93;;;;;;;9.07;34.16;101623.09;4970282;28;114270;-61
2022/03/11 03:15:56;;;;;;;12.05;5.80;;;;;;;9.07;34.12;101623.94;4968419;28;113822;-62
2022/03/11 03:18:24;;;;;;;10.13;5.28;;;;;;;9.07;33.99;101618.66;4970462;28;125482;-62
2022/03/11 03:20:51;;;;;;;12.38;5.10;;;;;;;9.08;34.13;101620.41;4967828;28;124152;-62
2022/03/11 03:23:18;;;;;;;10.82;5.28;;;;;;;9.09;34.30;101622.13;4969920;28;114482;-62
2022/03/11 03:25:45;;;;;;;8.88;5.00;;;;;;;9.10;34.31;101618.59;4969602;28;114527;-62
2022/03/11 03:28:13;;;;;;;9.73;4.95;;;;;;;9.11;34.06;101614.16;4967294;28;125533;-62
2022/03/11 03:30:40;;;;;;;9.55;5.03;;;;;;;9.09;34.28;101619.47;4965139;28;124575;-62
2022/03/11 03:33:08;;;;;;;10.07;4.82;;;;;;;9.10;34.13;101613.31;4969421;28;114635;-62
2022/03/11 03:35:35;;;;;;;11.90;5.00;;;;;;;9.09;34.46;101611.56;4985618;28;113123;-62
2022/03/11 03:38:06;;;;;;;14.98;5.20;;;;;;;9.08;34.06;101615.13;4967726;28;124333;-61
2022/03/11 03:40:33;;;;;;;9.60;5.15;;;;;;;9.09;34.32;101611.56;4962100;28;123875;-62
2022/03/11 03:43:01;;;;;;;11.68;5.15;;;;;;;9.10;34.40;101612.44;4981709;28;114155;-62
2022/03/11 03:45:28;;;;;;;12.50;5.65;;;;;;;9.11;34.55;101614.16;4991062;28;114092;-62
2022/03/11 03:47:55;;;;;;;8.65;4.72;;;;;;;9.11;34.61;101608.88;4980453;28;124009;-62
2022/03/11 03:50:23;;;;;;;8.77;4.65;;;;;;;9.12;34.22;101607.97;4983499;28;123905;-62
2022/03/11 03:52:50;;;;;;;10.70;4.97;;;;;;;9.11;34.23;101603.59;4988151;28;115087;-62
2022/03/11 03:55:17;;;;;;;7.90;4.45;;;;;;;9.10;34.54;101608.00;4989506;28;115018;-62
2022/03/11 03:57:44;;;;;;;12.77;5.18;;;;;;;9.09;34.42;101611.56;4986104;28;123837;-62
2022/03/11 04:00:16;;;;;;;10.15;4.95;;;;;;;9.07;34.51;101596.66;4986704;28;124459;-62
2022/03/11 04:02:48;;;;;;;11.73;4.80;;;;;;;9.07;34.63;101596.66;4988208;28;114051;-62
2022/03/11 04:05:17;;;;;;;9.50;4.65;;;;;;;9.07;34.53;101597.50;4988951;28;112966;-62
2022/03/11 04:07:47;;;;;;;10.18;4.60;;;;;;;9.06;34.70;101595.78;4989134;28;124690;-62
2022/03/11 04:10:15;;;;;;;9.13;4.82;;;;;;;9.07;34.76;101596.66;4987280;28;124067;-62
2022/03/11 04:12:42;;;;;;;9.52;4.80;;;;;;;9.05;34.19;101594.03;4987895;28;114934;-62
2022/03/11 04:15:10;;;;;;;9.90;5.20;;;;;;;9.05;34.64;101593.19;4988304;28;112899;-62
2022/03/11 04:17:37;;;;;;;8.68;4.78;;;;;;;9.07;34.59;101592.22;4987723;28;123077;-62
2022/03/11 04:20:05;;;;;;;9.95;5.20;;;;;;;9.07;34.86;101591.38;4986734;28;123597;-62
2022/03/11 04:22:32;;;;;;;10.18;5.13;;;;;;;9.09;34.53;101590.41;4987783;28;114525;-62
2022/03/11 04:25:00;;;;;;;8.80;4.60;;;;;;;9.10;34.94;101602.72;4989682;28;114280;-62
2022/03/11 04:27:27;;;;;;;9.80;5.13;;;;;;;9.13;34.53;101597.34;4987078;28;123997;-62
2022/03/11 04:29:54;;;;;;;10.43;5.63;;;;;;;9.18;34.99;101599.03;4989790;28;124025;-62
2022/03/11 04:32:23;;;;;;;11.02;4.85;;;;;;;9.18;34.88;101591.94;4991988;28;114573;-62
2022/03/11 04:34:50;;;;;;;10.63;5.28;;;;;;;9.18;34.61;101594.59;4991384;28;114903;-62
2022/03/11 04:37:18;;;;;;;8.43;4.88;;;;;;;9.19;34.67;101590.16;4992630;28;124408;-62
2022/03/11 04:39:45;;;;;;;10.80;5.93;;;;;;;9.19;35.01;101584.88;4989541;28;123794;-62
2022/03/11 04:42:12;;;;;;;11.10;5.40;;;;;;;9.19;34.67;101584.88;4991883;28;115108;-62
2022/03/11 04:44:39;;;;;;;10.07;4.72;;;;;;;9.19;34.75;101584.88;4990565;28;114994;-62
2022/03/11 04:47:06;;;;;;;9.15;4.55;;;;;;;9.20;34.83;101592.78;4990091;28;124175;-62
2022/03/11 04:49:34;;;;;;;9.05;4.88;;;;;;;9.21;35.05;101583.94;4989992;28;123991;-62
2022/03/11 04:52:01;;;;;;;11.27;4.50;;;;;;;9.22;34.78;101584.81;4989547;28;114373;-62
2022/03/11 04:54:28;;;;;;;10.48;4.30;;;;;;;9.23;34.91;101576.84;4990255;28;113706;-62
2022/03/11 04:56:55;;;;;;;10.75;5.18;;;;;;;9.25;34.92;101584.69;4990729;28;123916;-62
2022/03/11 04:59:22;;;;;;;9.50;4.95;;;;;;;9.25;34.73;101579.41;4991425;28;124055;-62
2022/03/11 05:01:49;;;;;;;11.73;5.30;;;;;;;9.26;35.03;101583.81;4989690;28;114158;-61
2022/03/11 05:04:17;;;;;;;10.73;4.97;;;;;;;9.29;34.72;101586.38;4993119;28;113775;-61
2022/03/11 05:06:44;;;;;;;11.15;4.90;;;;;;;9.30;34.89;101582.81;4990878;28;124703;-61
2022/03/11 05:09:11;;;;;;;8.45;4.97;;;;;;;9.31;34.70;101589.84;4989922;28;123546;-61
2022/03/11 05:11:40;;;;;;;9.90;5.10;;;;;;;9.33;34.90;101582.72;4989476;28;115158;-61
2022/03/11 05:14:08;;;;;;;8.98;4.60;;;;;;;9.34;35.13;101576.50;4992483;28;114571;-61
2022/03/11 05:16:35;;;;;;;9.55;4.82;;;;;;;9.36;34.93;101577.34;4989507;28;124630;-61
2022/03/11 05:19:02;;;;;;;11.57;5.00;;;;;;;9.36;34.91;101577.34;4992011;28;124293;-61
2022/03/11 05:21:29;;;;;;;10.98;5.18;;;;;;;9.37;34.91;101573.81;4989515;28;114628;-61
2022/03/11 05:23:56;;;;;;;12.23;5.70;;;;;;;9.39;34.84;101566.69;4992627;28;113909;-63
2022/03/11 05:26:28;;;;;;;10.70;5.07;;;;;;;9.40;34.84;101557.88;4990809;28;124163;-61
2022/03/11 05:29:00;;;;;;;9.40;5.05;;;;;;;9.40;34.91;101563.16;4991415;28;124600;-62
2022/03/11 05:31:28;;;;;;;11.20;5.00;;;;;;;9.43;35.01;101568.31;4991131;28;115354;-62
2022/03/11 05:33:55;;;;;;;10.48;5.40;;;;;;;9.44;35.13;101564.78;4990564;28;114852;-62
2022/03/11 05:36:23;;;;;;;11.70;5.25;;;;;;;9.46;34.78;101562.97;4991057;28;122896;-61
2022/03/11 05:38:51;;;;;;;13.05;5.53;;;;;;;9.48;35.03;101550.56;4989610;28;124276;-62
2022/03/11 05:41:18;;;;;;;10.25;4.93;;;;;;;9.50;35.12;101561.97;4989476;28;113287;-62
2022/03/11 05:43:45;;;;;;;10.55;5.10;;;;;;;9.51;34.90;101561.06;4991738;28;113892;-62
2022/03/11 05:46:13;;;;;;;10.60;5.10;;;;;;;9.52;34.97;101562.78;4989269;28;124537;-62
2022/03/11 05:48:41;;;;;;;13.50;5.20;;;;;;;9.53;34.82;101559.25;4989651;28;124399;-62
2022/03/11 05:51:08;;;;;;;10.18;5.07;;;;;;;9.53;35.19;101559.25;4987149;28;114430;-62
2022/03/11 05:53:36;;;;;;;9.55;5.38;;;;;;;9.56;34.78;101566.19;4990934;28;114418;-62
2022/03/11 05:56:03;;;;;;;9.57;4.88;;;;;;;9.57;35.16;101564.41;4988825;28;122865;-62
2022/03/11 05:58:31;;;;;;;12.13;5.53;;;;;;;9.58;35.15;101560.88;4990899;28;124848;-62
2022/03/11 06:00:58;;;;;;;11.60;5.55;;;;;;;9.58;35.23;101555.59;4988340;28;114669;-62
2022/03/11 06:03:26;;;;;;;12.77;5.68;;;;;;;9.58;35.08;101555.59;4991336;28;113000;-62
2022/03/11 06:05:53;;;;;;;9.27;4.90;;;;;;;9.58;34.90;101550.28;4989037;28;124049;-62
2022/03/11 06:08:22;;;;;;;11.57;5.50;;;;;;;9.60;34.94;101549.31;4990527;28;123521;-62
2022/03/11 06:10:51;;;;;;;9.00;5.15;;;;;;;9.59;35.24;101541.44;4991222;28;114278;-62
2022/03/11 06:13:18;;;;;;;9.90;5.03;;;;;;;9.60;35.02;101537.88;4991515;28;113823;-62
2022/03/11 06:15:45;;;;;;;11.25;4.85;;;;;;;9.60;35.15;101537.88;4990517;28;122894;-62
2022/03/11 06:18:15;;;;;;;12.30;5.88;;;;;;;9.61;35.10;101544.94;4988977;28;123893;-62
2022/03/11 06:20:42;;;;;;;10.90;5.28;;;;;;;9.61;34.96;101539.63;4988385;28;115711;-62
2022/03/11 06:23:13;;;;;;;12.68;5.60;;;;;;;9.61;35.27;101539.63;4990783;28;115085;-62
2022/03/11 06:25:42;;;;;;;13.32;5.85;;;;;;;9.60;35.20;101533.47;4989124;28;124390;-62
2022/03/11 06:28:15;;;;;;;11.65;5.97;;;;;;;9.60;35.11;101537.88;4988847;28;125138;-62
2022/03/11 06:30:45;;;;;;;12.20;5.88;;;;;;;9.62;35.28;101541.34;4988739;28;114190;-62
2022/03/11 06:33:20;;;;;;;12.65;5.78;;;;;;;9.62;35.12;101549.28;4990721;28;114308;-62
2022/03/11 06:35:48;;;;;;;10.10;5.55;;;;;;;9.63;35.35;101537.81;4990986;28;124040;-62
2022/03/11 06:38:15;;;;;;;12.00;5.97;;;;;;;9.65;35.30;101541.28;4989155;28;124041;-62
2022/03/11 06:40:49;;;;;;;10.73;5.95;;;;;;;9.65;35.49;101535.97;4989025;28;114348;-62
2022/03/11 06:43:17;;;;;;;12.43;5.72;;;;;;;9.67;35.47;101542.09;4990768;28;113932;-62
2022/03/11 06:45:45;;;;;;;11.43;5.65;;;;;;;9.67;35.45;101550.03;4989787;28;123717;-62
2022/03/11 06:48:18;;;;;;;12.82;5.80;;;;;;;9.68;35.57;101546.44;4990667;28;124716;-62
2022/03/11 06:50:45;;;;;;;10.18;5.43;;;;;;;9.70;35.40;101544.63;4990953;28;114276;-62
2022/03/11 06:53:13;;;;;;;12.27;5.90;;;;;;;9.74;35.48;101546.28;4989716;28;114201;-62
2022/03/11 06:55:40;;;;;;;13.05;6.53;;;;;;;9.79;35.27;101544.34;4989400;28;124127;-62
2022/03/11 06:58:07;;;;;;;11.02;5.72;;;;;;;9.85;35.60;101554.75;4990219;28;122947;-62
2022/03/11 07:00:35;;;;;;;13.07;6.20;;;;;;;9.94;35.66;101559.78;4990136;28;114874;-62
2022/03/11 07:03:02;;;;;;;13.38;6.57;;;;;;;10.01;35.53;101555.16;4990459;28;114275;-62
2022/03/11 07:05:30;;;;;;;12.68;6.22;;;;;;;10.10;35.48;101548.72;4991215;28;123919;-62
2022/03/11 07:07:57;;;;;;;12.90;6.03;;;;;;;10.18;35.49;101551.97;4988490;28;123680;-62
2022/03/11 07:10:25;;;;;;;13.20;6.63;;;;;;;10.27;35.61;101556.97;4989149;28;114167;-62
2022/03/11 07:12:52;;;;;;;11.60;6.05;;;;;;;10.36;35.25;101544.38;4988358;28;114890;-62
2022/03/11 07:15:19;;;;;;;11.90;6.43;;;;;;;10.44;35.44;101547.66;4989414;28;123113;-62
2022/03/11 07:17:48;;;;;;;14.98;6.63;;;;;;;10.50;35.09;101550.09;4990395;28;124329;-62
2022/03/11 07:20:17;;;;;;;15.15;6.63;;;;;;;10.54;35.28;101549.06;4988155;28;114379;-62
2022/03/11 07:22:48;;;;;;;13.48;7.07;;;;;;;10.60;35.46;101543.53;4987938;28;114111;-62
2022/03/11 07:25:17;;;;;;;12.52;6.53;;;;;;;10.65;34.72;101538.97;4989854;28;124782;-62
2022/03/11 07:27:45;;;;;;;15.55;6.65;;;;;;;10.71;34.97;101541.41;4988458;28;123767;-62
2022/03/11 07:30:15;;;;;;;11.68;6.40;;;;;;;10.77;35.07;101534.16;4986908;28;114677;-62
2022/03/11 07:32:45;;;;;;;12.85;6.80;;;;;;;10.84;34.86;101546.28;4990275;28;113199;-62
2022/03/11 07:35:13;;;;;;;17.83;7.30;;;;;;;10.87;35.08;101546.19;4989610;28;124789;-63
2022/03/11 07:37:40;;;;;;;12.38;6.30;;;;;;;10.92;34.97;101538.91;4989341;28;124267;-62
2022/03/11 07:40:08;;;;;;;14.80;6.93;;;;;;;10.97;34.89;101542.28;4987774;28;114181;-62
2022/03/11 07:42:42;;;;;;;14.10;6.88;;;;;;;11.01;34.86;101549.19;4990831;28;115128;-62
2022/03/11 07:45:12;;;;;;;13.10;7.38;;;;;;;11.07;34.61;101551.63;4986858;28;124487;-62
2022/03/11 07:47:43;;;;;;;14.10;7.43;;;;;;;11.13;34.70;101541.72;4988540;28;123925;-62
2022/03/11 07:50:10;;;;;;;12.48;6.53;;;;;;;11.17;34.53;101535.38;4987355;28;114095;-62
2022/03/11 07:52:39;;;;;;;13.00;6.95;;;;;;;11.19;34.62;101536.19;4990219;28;113074;-62
2022/03/11 07:55:08;;;;;;;14.23;6.78;;;;;;;11.23;34.98;101532.53;4990108;28;124057;-62
2022/03/11 07:57:36;;;;;;;13.73;6.85;;;;;;;11.29;34.86;101532.31;4990461;28;124144;-62
2022/03/11 08:00:08;;;;;;;12.63;6.82;;;;;;;11.32;34.51;101534.84;4987467;28;115136;-62
2022/03/11 08:02:41;;;;;;;13.15;7.10;;;;;;;11.37;34.82;101537.31;4988604;28;115338;-63
2022/03/11 08:05:16;;;;;;;14.30;7.13;;;;;;;11.39;34.61;101533.69;4993784;28;124049;-62
2022/03/11 08:07:48;;;;;;;16.67;7.75;;;;;;;11.43;34.45;101534.44;4991203;28;124022;-62
2022/03/11 08:10:17;;;;;;;11.32;6.72;;;;;;;11.46;34.74;101534.31;4992160;28;113827;-63
2022/03/11 08:12:44;;;;;;;13.98;7.28;;;;;;;11.48;34.55;101528.03;4992020;28;114658;-62
2022/03/11 08:15:12;;;;;;;14.40;7.60;;;;;;;11.51;34.51;101532.38;4992419;28;123868;-62
2022/03/11 08:17:40;;;;;;;13.00;7.25;;;;;;;11.56;34.41;101529.53;4991237;28;123982;-62
2022/03/11 08:20:09;;;;;;;15.32;8.20;;;;;;;11.60;34.37;101525.84;4991894;28;113143;-62
2022/03/11 08:22:37;;;;;;;14.52;7.85;;;;;;;11.64;34.36;101532.75;4991449;28;113865;-62
2022/03/11 08:25:08;;;;;;;16.30;7.25;;;;;;;11.67;34.28;101522.03;4990876;28;124219;-62
2022/03/11 08:27:36;;;;;;;16.20;8.10;;;;;;;11.72;34.39;101512.09;4992147;28;124679;-61
2022/03/11 08:30:07;;;;;;;14.68;7.88;;;;;;;11.77;34.31;101518.09;4990925;28;114943;-62
2022/03/11 08:32:35;;;;;;;14.13;7.35;;;;;;;11.83;34.56;101517.84;4993424;28;113949;-62
2022/03/11 08:35:05;;;;;;;15.27;7.32;;;;;;;11.87;34.14;101514.16;4992377;28;123774;-62
2022/03/11 08:37:36;;;;;;;16.73;7.72;;;;;;;11.90;34.21;101507.88;4989858;28;123910;-62
2022/03/11 08:40:06;;;;;;;15.05;7.63;;;;;;;11.96;34.56;101496.16;4991039;28;114207;-62
2022/03/11 08:42:34;;;;;;;12.75;7.30;;;;;;;12.02;34.47;101491.47;4993608;28;114554;-62
2022/03/11 08:45:02;;;;;;;14.05;7.95;;;;;;;12.11;34.25;101495.56;4992093;28;124019;-62
2022/03/11 08:47:29;;;;;;;16.80;8.38;;;;;;;12.19;34.44;101497.88;5008774;28;123197;-62
2022/03/11 08:49:57;;;;;;;17.05;8.15;;;;;;;12.25;34.42;101487.84;4989610;28;115137;-62
2022/03/11 08:52:25;;;;;;;14.25;7.82;;;;;;;12.29;34.09;101487.75;4990875;28;114679;-62
2022/03/11 08:54:55;;;;;;;15.30;7.60;;;;;;;12.33;34.23;101478.72;4991900;28;123845;-62
2022/03/11 08:57:23;;;;;;;16.55;7.60;;;;;;;12.39;34.14;101494.38;4990403;28;124077;-62
2022/03/11 08:59:50;;;;;;;14.73;8.20;;;;;;;12.45;34.10;101483.47;4991177;28;113258;-62
2022/03/11 09:02:17;;;;;;;16.60;7.95;;;;;;;12.53;34.33;101480.53;4993132;28;113865;-62
2022/03/11 09:04:46;;;;;;;17.38;8.93;;;;;;;12.63;34.45;101477.38;4990940;28;123971;-62
2022/03/11 09:07:14;;;;;;;15.32;8.23;;;;;;;12.71;34.27;101478.84;4991914;28;123292;-62
2022/03/11 09:09:41;;;;;;;14.48;7.70;;;;;;;12.81;34.24;101472.22;4990215;28;114375;-62
2022/03/11 09:12:08;;;;;;;14.82;8.10;;;;;;;12.87;33.92;101474.59;4990287;28;114083;-62
2022/03/11 09:14:35;;;;;;;17.38;8.07;;;;;;;12.93;33.88;101474.31;4989239;28;124896;-62
2022/03/11 09:17:03;;;;;;;16.50;8.52;;;;;;;12.97;33.99;101473.22;4990136;28;124254;-62
2022/03/11 09:19:31;;;;;;;15.88;8.10;;;;;;;13.06;34.01;101479.94;4989183;28;114290;-62
2022/03/11 09:21:59;;;;;;;18.05;8.70;;;;;;;13.14;33.83;101474.28;4991165;28;113042;-62
2022/03/11 09:24:26;;;;;;;18.17;8.48;;;;;;;13.21;33.99;101473.06;4989873;28;123895;-62
2022/03/11 09:27:11;;;;;;;14.50;8.43;;;;;;;13.28;33.58;101463.88;4993096;28;124585;-62
2022/03/11 09:29:40;;;;;;;19.58;8.35;;;;;;;13.37;33.53;101479.44;4990564;28;114212;-62
2022/03/11 09:32:08;;;;;;;16.23;8.60;;;;;;;13.43;33.57;101471.16;4990328;28;114353;-62
2022/03/11 09:34:37;;;;;;;17.23;9.07;;;;;;;13.48;33.54;101475.41;4989833;28;124462;-62
2022/03/11 09:37:05;;;;;;;15.90;8.45;;;;;;;13.52;33.47;101466.34;4991835;28;124172;-62
2022/03/11 09:39:33;;;;;;;19.67;8.75;;;;;;;13.56;33.53;101452.81;4991930;28;115241;-62
2022/03/11 09:42:02;;;;;;;17.50;8.60;;;;;;;13.63;33.74;101453.38;4992213;28;115385;-62
2022/03/11 09:44:29;;;;;;;16.90;8.63;;;;;;;13.73;33.46;101457.34;4989738;28;125544;-62
2022/03/11 09:46:57;;;;;;;19.33;9.02;;;;;;;13.82;33.43;101454.22;4991189;28;124049;-62
2022/03/11 09:49:25;;;;;;;16.50;8.52;;;;;;;13.92;33.43;101451.09;4989813;28;114440;-62
2022/03/11 09:51:52;;;;;;;18.95;8.75;;;;;;;13.99;33.48;101455.19;4991843;28;114584;-62
2022/03/11 09:54:19;;;;;;;14.63;8.43;;;;;;;14.09;33.43;101456.47;4992160;28;124436;-62
2022/03/11 09:56:49;;;;;;;17.23;9.00;;;;;;;14.14;33.27;101454.41;4989788;28;123741;-62
2022/03/11 09:59:16;;;;;;;17.85;8.98;;;;;;;14.21;33.44;101450.50;4989566;28;114295;-62
2022/03/11 10:01:43;;;;;;;20.17;8.75;;;;;;;14.28;33.18;101442.19;4989416;28;114011;-62
2022/03/11 10:04:11;;;;;;;15.88;8.65;;;;;;;14.36;33.37;101432.88;4990461;28;123786;-62
2022/03/11 10:06:46;;;;;;;16.65;9.02;;;;;;;14.42;33.08;101437.03;4991811;28;124311;-62
2022/03/11 10:09:19;;;;;;;18.20;9.30;;;;;;;14.51;33.29;101441.88;4989796;28;114398;-62
2022/03/11 10:11:54;;;;;;;16.30;9.10;;;;;;;14.62;33.24;101427.16;4990044;28;114346;-62
2022/03/11 10:14:29;;;;;;;16.97;9.37;;;;;;;14.70;32.96;101430.28;4990993;28;123735;-62
2022/03/11 10:16:58;;;;;;;18.17;8.98;;;;;;;14.76;32.92;101427.28;4989175;28;124298;-63
2022/03/11 10:19:27;;;;;;;19.95;9.10;;;;;;;14.79;32.88;101414.66;4987949;28;114613;-62
2022/03/11 10:21:57;;;;;;;18.38;9.45;;;;;;;14.86;32.99;101420.53;4990120;28;113905;-62
2022/03/11 10:24:25;;;;;;;17.50;8.82;;;;;;;14.93;32.66;101427.25;4991768;28;124390;-62
2022/03/11 10:26:55;;;;;;;16.70;8.98;;;;;;;14.97;32.64;101412.81;4988221;28;124656;-62
2022/03/11 10:29:31;;;;;;;16.30;8.90;;;;;;;15.06;32.77;101415.91;4989573;28;115557;-62
2022/03/11 10:32:00;;;;;;;18.60;9.23;;;;;;;15.19;32.71;101411.63;4987265;28;114786;-62
2022/03/11 10:34:33;;;;;;;15.48;9.10;;;;;;;15.31;32.67;101405.63;4988711;28;125063;-62
2022/03/11 10:37:02;;;;;;;17.05;8.63;;;;;;;15.44;32.90;101400.44;4990339;28;124994;-62
2022/03/11 10:39:37;;;;;;;16.00;8.88;;;;;;;15.56;32.47;101401.56;4988759;28;114884;-62
2022/03/11 10:42:24;;;;;;;19.27;8.98;;;;;;;15.64;32.56;101391.28;4991022;28;114445;-62
2022/03/11 10:45:03;;;;;;;14.57;8.75;;;;;;;15.72;32.37;101399.72;4989735;28;123978;-62
2022/03/11 10:47:40;;;;;;;18.80;9.23;;;;;;;15.77;32.30;101391.50;5006778;28;123587;-62
2022/03/11 10:50:12;;;;;;;16.65;9.35;;;;;;;15.83;32.28;101390.28;4990371;28;113603;-62
2022/03/11 10:52:44;;;;;;;14.73;8.77;;;;;;;15.88;32.08;101398.84;4989966;28;112913;-62
2022/03/11 10:55:26;;;;;;;16.80;9.65;;;;;;;15.89;32.04;101389.91;4988103;28;124101;-62
2022/03/11 10:57:57;;;;;;;15.63;8.73;;;;;;;15.94;32.10;101390.50;4988222;28;124216;-62
2022/03/11 11:00:30;;;;;;;15.52;9.30;;;;;;;15.99;31.87;101385.72;4989556;28;113430;-62
2022/03/11 11:03:01;;;;;;;17.95;9.27;;;;;;;16.05;31.99;101380.03;4989805;28;114325;-62
2022/03/11 11:05:29;;;;;;;16.85;9.02;;;;;;;16.11;31.82;101385.00;4988531;28;124329;-62
2022/03/11 11:07:58;;;;;;;17.33;9.43;;;;;;;16.15;31.67;101397.22;4989328;28;124439;-63
2022/03/11 11:10:27;;;;;;;17.63;9.35;;;;;;;16.19;31.62;101386.38;4989997;28;114132;-62
2022/03/11 11:12:55;;;;;;;18.02;9.63;;;;;;;16.23;31.94;101388.75;4990157;28;112900;-62
2022/03/11 11:15:23;;;;;;;19.20;9.95;;;;;;;16.31;31.68;101381.16;4988358;28;124398;-63
2022/03/11 11:17:51;;;;;;;17.25;9.48;;;;;;;16.35;31.43;101371.97;4989622;28;122751;-62
2022/03/11 11:20:20;;;;;;;16.10;9.20;;;;;;;16.37;31.46;101369.22;4988406;28;115317;-62